Time;durP1;ratioP1;P1;durP2;ratioP2;P2;SDS_P1;SDS_P2;PMS_P1;PMS_P2;Temp;Humidity;BMP_temperature;BMP_pressure;BME280_temperature;BME280_humidity;BME280_pressure;Samples;Min_cycle;Max_cycle;Signal;HPM_P1;HPM_P2
2022/11/20 00:00:39;;;;;;;32.97;18.85;;;3.40;99.90;;;;;;4966409;28;20042;-78
2022/11/20 00:03:06;;;;;;;35.72;19.85;;;3.40;99.90;;;;;;4969214;28;20129;-77
2022/11/20 00:05:33;;;;;;;36.08;19.02;;;3.40;99.90;;;;;;4969202;28;20137;-78
2022/11/20 00:08:00;;;;;;;39.58;21.08;;;3.40;99.90;;;;;;4969655;28;20049;-77
2022/11/20 00:10:28;;;;;;;36.33;20.85;;;3.40;99.90;;;;;;4968216;28;20054;-77
2022/11/20 00:12:55;;;;;;;36.38;20.67;;;3.40;99.90;;;;;;4969438;28;20050;-77
2022/11/20 00:15:22;;;;;;;35.55;20.77;;;3.30;99.90;;;;;;4969076;28;20043;-77
2022/11/20 00:17:49;;;;;;;36.92;20.40;;;3.30;99.90;;;;;;4951294;28;20043;-77
2022/11/20 00:20:16;;;;;;;35.83;20.23;;;3.30;99.90;;;;;;4967913;28;20605;-77
2022/11/20 00:22:43;;;;;;;34.78;19.58;;;3.30;99.90;;;;;;4967693;28;20047;-77
2022/11/20 00:25:11;;;;;;;33.38;20.13;;;3.30;99.90;;;;;;4969371;28;20463;-77
2022/11/20 00:27:39;;;;;;;39.45;21.48;;;3.30;99.90;;;;;;4969331;28;20095;-77
2022/11/20 00:30:07;;;;;;;36.67;20.83;;;3.30;99.90;;;;;;4969524;28;20050;-77
2022/11/20 00:32:34;;;;;;;35.08;19.65;;;3.30;99.90;;;;;;4971152;28;20061;-77
2022/11/20 00:35:01;;;;;;;37.70;20.42;;;3.30;99.90;;;;;;4971157;28;20491;-77
2022/11/20 00:37:28;;;;;;;33.95;19.83;;;3.30;99.90;;;;;;4972216;28;20046;-77
2022/11/20 00:39:55;;;;;;;34.55;19.83;;;3.20;99.90;;;;;;4972950;28;20058;-77
2022/11/20 00:42:22;;;;;;;35.05;19.35;;;3.20;99.90;;;;;;4971689;28;20046;-77
2022/11/20 00:44:52;;;;;;;37.33;19.67;;;3.20;99.90;;;;;;4972511;28;20057;-77
2022/11/20 00:47:18;;;;;;;34.45;19.55;;;3.20;99.90;;;;;;4972997;28;20047;-77
2022/11/20 00:49:45;;;;;;;33.85;19.38;;;3.20;99.90;;;;;;4970458;28;20069;-77
2022/11/20 00:52:12;;;;;;;35.72;20.42;;;3.20;99.90;;;;;;4971148;28;20085;-77
2022/11/20 00:54:39;;;;;;;38.05;21.27;;;3.30;99.90;;;;;;4972481;28;20042;-78
2022/11/20 00:57:06;;;;;;;36.38;20.88;;;3.30;99.90;;;;;;4972027;28;20503;-77
2022/11/20 00:59:33;;;;;;;35.85;20.75;;;3.30;99.90;;;;;;4954564;28;20157;-77
2022/11/20 01:02:01;;;;;;;40.40;22.05;;;3.30;99.90;;;;;;4971673;28;20038;-77
2022/11/20 01:04:28;;;;;;;40.28;22.17;;;3.30;99.90;;;;;;4966740;28;20035;-77
2022/11/20 01:06:55;;;;;;;35.45;20.77;;;3.30;99.90;;;;;;4970117;28;20050;-77
2022/11/20 01:09:22;;;;;;;35.80;22.00;;;3.30;99.90;;;;;;4972154;28;20042;-78
2022/11/20 01:11:49;;;;;;;38.30;22.92;;;3.30;99.90;;;;;;4981792;22;20541;-76
2022/11/20 01:14:18;;;;;;;34.92;21.25;;;3.30;99.90;;;;;;4968373;28;20043;-76
2022/11/20 01:16:48;;;;;;;36.40;20.20;;;3.40;99.90;;;;;;4972481;28;20068;-76
2022/11/20 01:19:18;;;;;;;40.47;22.23;;;3.40;99.90;;;;;;4972127;28;20050;-76
2022/11/20 01:21:46;;;;;;;36.67;21.13;;;3.40;99.90;;;;;;4959019;28;20062;-76
2022/11/20 01:24:17;;;;;;;36.78;20.63;;;3.40;99.90;;;;;;4950008;29;20044;-76
2022/11/20 01:26:45;;;;;;;36.80;20.80;;;3.50;99.90;;;;;;4952167;29;20065;-76
2022/11/20 01:29:15;;;;;;;38.97;21.48;;;3.50;99.90;;;;;;4952461;29;20410;-76
2022/11/20 01:31:42;;;;;;;37.33;20.70;;;3.50;99.90;;;;;;4951787;28;20055;-76
2022/11/20 01:34:11;;;;;;;37.53;21.08;;;3.50;99.90;;;;;;4952370;29;20079;-76
2022/11/20 01:36:40;;;;;;;37.67;21.17;;;3.50;99.90;;;;;;4946330;29;20047;-76
2022/11/20 01:39:10;;;;;;;37.38;19.88;;;3.60;99.90;;;;;;4931146;29;20431;-76
2022/11/20 01:44:23;;;;;;;36.22;19.38;;;3.60;99.90;;;;;;4951869;29;20050;-76
2022/11/20 01:46:56;;;;;;;33.90;20.38;;;3.60;99.90;;;;;;4952240;29;20138;-76
2022/11/20 01:49:26;;;;;;;34.38;20.02;;;3.60;99.90;;;;;;4952449;29;20058;-76
2022/11/20 01:51:57;;;;;;;33.42;19.88;;;3.60;99.90;;;;;;4951634;28;20063;-76
2022/11/20 01:54:26;;;;;;;36.95;20.85;;;3.60;99.90;;;;;;4950821;29;20050;-76
2022/11/20 01:56:55;;;;;;;38.78;22.08;;;3.70;99.90;;;;;;4952565;29;20047;-76
2022/11/20 01:59:23;;;;;;;33.90;20.17;;;3.90;99.90;;;;;;4952261;29;20047;-76
2022/11/20 02:01:50;;;;;;;35.65;20.92;;;3.70;99.90;;;;;;4934483;29;20154;-76
2022/11/20 02:04:17;;;;;;;36.15;20.85;;;3.70;99.90;;;;;;4948918;29;20039;-76
2022/11/20 02:06:48;;;;;;;36.25;20.65;;;3.70;99.90;;;;;;4945725;29;20053;-76
2022/11/20 02:09:17;;;;;;;37.15;21.33;;;3.80;99.90;;;;;;4951748;29;20125;-76
2022/11/20 02:11:44;;;;;;;38.38;21.75;;;3.80;99.90;;;;;;4949604;28;20047;-76
2022/11/20 02:14:10;;;;;;;38.97;21.25;;;3.80;99.90;;;;;;4951900;29;20130;-76
2022/11/20 02:16:40;;;;;;;37.60;20.17;;;3.80;99.90;;;;;;4951430;29;20389;-76
2022/11/20 02:19:10;;;;;;;40.53;21.77;;;3.80;99.90;;;;;;4934787;29;20488;-76
2022/11/20 02:21:42;;;;;;;35.93;21.40;;;4.00;99.90;;;;;;4949229;28;20043;-76
2022/11/20 02:24:13;;;;;;;35.30;21.02;;;3.80;99.90;;;;;;4943185;29;20877;-76
2022/11/20 02:26:46;;;;;;;41.20;22.17;;;3.90;99.90;;;;;;4951028;29;20558;-76
2022/11/20 02:29:13;;;;;;;39.05;21.70;;;3.90;99.90;;;;;;4948649;29;20526;-76
2022/11/20 02:31:41;;;;;;;37.08;21.25;;;3.80;99.90;;;;;;4951066;28;20043;-76
2022/11/20 02:34:09;;;;;;;38.38;22.27;;;3.90;99.90;;;;;;4951325;29;20054;-76
2022/11/20 02:36:36;;;;;;;36.88;20.52;;;3.90;99.90;;;;;;4951003;29;20039;-76
2022/11/20 02:42:38;;;;;;;37.20;20.85;;;3.90;99.90;;;;;;4889615;29;20048;-76
2022/11/20 02:45:06;;;;;;;34.72;19.98;;;3.90;99.90;;;;;;4944146;29;20059;-76
2022/11/20 02:47:33;;;;;;;33.03;19.88;;;3.90;99.90;;;;;;4946932;29;20077;-76
2022/11/20 02:50:00;;;;;;;43.50;22.08;;;3.90;99.90;;;;;;4950828;29;20051;-76
2022/11/20 02:52:27;;;;;;;33.63;20.00;;;3.90;99.90;;;;;;4950618;28;20047;-76
2022/11/20 02:54:54;;;;;;;36.63;20.38;;;3.90;99.90;;;;;;4950950;28;20044;-76
2022/11/20 02:57:21;;;;;;;33.75;20.10;;;3.90;99.90;;;;;;4950891;29;20122;-76
2022/11/20 02:59:49;;;;;;;35.70;21.48;;;3.90;99.90;;;;;;4948427;29;20047;-76
2022/11/20 03:02:16;;;;;;;35.95;20.88;;;3.90;99.90;;;;;;4948160;28;20043;-77
2022/11/20 03:04:43;;;;;;;35.30;21.58;;;3.90;99.90;;;;;;4950268;28;20058;-76
2022/11/20 03:07:10;;;;;;;38.53;20.85;;;3.90;99.90;;;;;;4948340;29;20057;-76
2022/11/20 03:09:37;;;;;;;36.20;21.08;;;3.90;99.90;;;;;;4940850;29;20046;-76
2022/11/20 03:12:05;;;;;;;35.75;20.90;;;3.90;99.90;;;;;;4944951;28;20047;-76
2022/11/20 03:14:32;;;;;;;37.80;21.52;;;3.90;99.90;;;;;;4950850;29;20043;-76
2022/11/20 03:17:00;;;;;;;35.85;20.75;;;4.00;99.90;;;;;;4948271;28;20051;-76
2022/11/20 03:19:27;;;;;;;37.10;20.70;;;4.00;99.90;;;;;;4942843;28;20126;-76
2022/11/20 03:21:54;;;;;;;35.20;21.27;;;4.00;99.90;;;;;;4952053;28;20595;-76
2022/11/20 03:24:21;;;;;;;37.50;21.33;;;4.00;99.90;;;;;;4948901;28;20063;-76
2022/11/20 03:26:48;;;;;;;35.47;20.98;;;4.00;99.90;;;;;;4950048;28;20047;-77
2022/11/20 03:29:14;;;;;;;36.63;21.17;;;4.10;99.90;;;;;;4955247;28;20125;-77
2022/11/20 03:31:42;;;;;;;34.05;19.83;;;4.10;99.90;;;;;;4961546;28;20054;-76
2022/11/20 03:34:11;;;;;;;38.03;21.58;;;4.10;99.90;;;;;;4949086;28;20073;-76
2022/11/20 03:36:39;;;;;;;33.30;20.58;;;4.10;99.90;;;;;;4954891;28;20039;-76
2022/11/20 03:39:06;;;;;;;34.00;19.90;;;4.10;99.90;;;;;;4935248;28;20047;-76
2022/11/20 03:41:38;;;;;;;35.03;19.73;;;4.10;99.90;;;;;;4950159;28;20483;-76
2022/11/20 03:44:07;;;;;;;32.95;20.20;;;4.10;99.90;;;;;;4950511;28;20051;-77
2022/11/20 03:46:34;;;;;;;36.92;19.45;;;4.10;99.90;;;;;;4950271;28;20043;-76
2022/11/20 03:49:01;;;;;;;34.28;20.88;;;4.10;99.90;;;;;;4949682;28;20047;-76
2022/11/20 03:51:30;;;;;;;33.97;20.10;;;4.20;99.90;;;;;;4952564;28;20050;-76
2022/11/20 03:53:59;;;;;;;33.65;19.50;;;4.20;99.90;;;;;;4953835;28;20117;-76
2022/11/20 03:56:28;;;;;;;33.17;18.95;;;4.20;99.90;;;;;;4956388;28;20102;-76
2022/11/20 03:58:55;;;;;;;33.35;19.55;;;4.20;99.90;;;;;;4950923;28;20094;-76
2022/11/20 04:01:24;;;;;;;31.67;18.77;;;4.20;99.90;;;;;;4947111;28;20071;-76
2022/11/20 04:03:53;;;;;;;32.40;18.95;;;4.30;99.90;;;;;;4949330;29;20078;-76
2022/11/20 04:06:22;;;;;;;32.63;19.45;;;4.30;99.90;;;;;;4933249;29;20071;-76
2022/11/20 04:08:50;;;;;;;34.47;18.58;;;4.30;99.90;;;;;;4952963;29;20184;-76
2022/11/20 04:11:19;;;;;;;31.60;19.00;;;4.30;99.90;;;;;;4950811;28;20043;-76
2022/11/20 04:13:48;;;;;;;34.20;18.92;;;4.30;99.90;;;;;;4953739;29;20051;-77
2022/11/20 04:16:17;;;;;;;35.30;18.95;;;4.30;99.90;;;;;;4944424;29;20484;-76
2022/11/20 04:18:44;;;;;;;30.55;17.77;;;4.40;99.90;;;;;;4953478;29;20055;-76
2022/11/20 04:21:11;;;;;;;34.35;19.35;;;4.30;99.90;;;;;;4945258;28;20054;-76
2022/11/20 04:23:38;;;;;;;34.47;19.15;;;4.40;99.90;;;;;;4953232;29;20047;-76
2022/11/20 04:26:08;;;;;;;34.70;19.13;;;4.40;99.90;;;;;;4953060;28;20122;-76
2022/11/20 04:28:35;;;;;;;31.75;18.63;;;4.40;99.90;;;;;;4947395;29;20070;-76
2022/11/20 04:31:04;;;;;;;34.45;18.92;;;4.40;99.90;;;;;;4948657;29;20639;-76
2022/11/20 04:33:31;;;;;;;31.10;18.40;;;4.40;99.90;;;;;;4953623;29;20118;-76
2022/11/20 04:36:02;;;;;;;29.77;17.77;;;4.40;99.90;;;;;;4944749;29;20043;-76
2022/11/20 04:38:29;;;;;;;31.67;17.73;;;4.40;99.90;;;;;;4946361;29;20047;-76
2022/11/20 04:40:58;;;;;;;30.90;18.77;;;4.40;99.90;;;;;;4945118;29;20595;-76
2022/11/20 04:43:27;;;;;;;30.67;17.52;;;4.50;99.90;;;;;;4943384;28;20522;-76
2022/11/20 04:45:54;;;;;;;30.83;18.42;;;4.50;99.90;;;;;;4953476;29;20122;-76
2022/11/20 04:48:21;;;;;;;27.27;16.75;;;4.50;99.90;;;;;;4949128;29;20069;-76
2022/11/20 04:50:48;;;;;;;29.52;17.23;;;4.50;99.90;;;;;;4952739;28;20047;-76
2022/11/20 04:53:15;;;;;;;28.42;17.15;;;4.50;99.90;;;;;;4952698;29;20046;-76
2022/11/20 04:55:42;;;;;;;30.33;17.27;;;4.50;99.90;;;;;;4953092;29;20408;-76
2022/11/20 04:58:09;;;;;;;27.35;15.98;;;4.50;99.90;;;;;;4953281;29;20042;-76
2022/11/20 05:00:38;;;;;;;28.52;16.88;;;4.50;99.90;;;;;;4943261;28;20083;-76
2022/11/20 05:03:04;;;;;;;28.35;16.45;;;4.50;99.90;;;;;;4952628;29;20047;-76
2022/11/20 05:05:32;;;;;;;29.33;17.50;;;4.50;99.90;;;;;;4947742;29;20419;-76
2022/11/20 05:07:59;;;;;;;27.75;15.93;;;4.50;99.90;;;;;;4949382;29;20518;-77
2022/11/20 05:10:26;;;;;;;29.02;16.77;;;4.50;99.90;;;;;;4944097;28;20043;-76
2022/11/20 05:12:53;;;;;;;29.38;17.25;;;4.60;99.90;;;;;;4952529;29;20410;-76
2022/11/20 05:15:20;;;;;;;30.25;16.17;;;4.60;99.90;;;;;;4953245;29;20050;-76
2022/11/20 05:17:50;;;;;;;26.95;15.13;;;4.60;99.90;;;;;;4928677;29;20051;-76
2022/11/20 05:20:17;;;;;;;25.77;16.23;;;4.60;99.90;;;;;;4951680;29;20055;-76
2022/11/20 05:22:44;;;;;;;27.55;16.42;;;4.60;99.90;;;;;;4950998;29;20255;-76
2022/11/20 05:25:11;;;;;;;26.65;16.02;;;4.60;99.90;;;;;;4948090;29;20043;-76
2022/11/20 05:27:38;;;;;;;27.55;15.93;;;4.60;99.90;;;;;;4952950;29;20063;-76
2022/11/20 05:30:06;;;;;;;25.05;15.38;;;4.60;99.90;;;;;;4946682;28;20051;-76
2022/11/20 05:32:33;;;;;;;29.38;15.65;;;4.60;99.90;;;;;;4949464;28;20051;-76
2022/11/20 05:35:01;;;;;;;26.58;15.68;;;4.60;99.90;;;;;;4951086;29;21708;-76
2022/11/20 05:37:28;;;;;;;25.98;14.95;;;4.60;99.90;;;;;;4944822;29;20043;-76
2022/11/20 05:39:55;;;;;;;26.73;14.85;;;4.80;99.90;;;;;;4933104;29;20074;-76
2022/11/20 05:42:30;;;;;;;26.98;14.75;;;4.70;99.90;;;;;;4951948;28;20138;-76
2022/11/20 05:44:57;;;;;;;28.60;16.02;;;4.70;99.90;;;;;;4934761;29;20065;-76
2022/11/20 05:47:24;;;;;;;28.77;16.38;;;4.70;99.90;;;;;;4952259;29;20049;-76
2022/11/20 05:49:51;;;;;;;28.45;16.10;;;4.70;99.90;;;;;;4950013;29;20075;-77
2022/11/20 05:52:20;;;;;;;29.73;17.42;;;4.70;99.90;;;;;;4948210;28;20098;-76
2022/11/20 05:54:47;;;;;;;28.73;16.90;;;4.70;99.90;;;;;;4947608;29;20043;-76
2022/11/20 05:57:14;;;;;;;29.02;17.42;;;4.70;99.90;;;;;;4952122;29;20042;-76
2022/11/20 05:59:41;;;;;;;28.85;17.35;;;4.80;99.90;;;;;;4946340;29;20044;-76
2022/11/20 06:02:07;;;;;;;30.90;18.27;;;4.80;99.90;;;;;;4949335;28;20047;-76
2022/11/20 06:04:34;;;;;;;30.65;18.55;;;4.80;99.90;;;;;;4942662;28;20133;-77
2022/11/20 06:07:01;;;;;;;33.97;19.70;;;4.80;99.90;;;;;;4947793;29;20103;-76
2022/11/20 06:09:30;;;;;;;34.55;18.98;;;4.80;99.90;;;;;;4951067;29;20047;-76
2022/11/20 06:11:57;;;;;;;30.67;17.95;;;4.80;99.90;;;;;;4951383;28;20047;-76
2022/11/20 06:14:24;;;;;;;29.35;18.02;;;4.80;99.90;;;;;;4943650;29;20463;-76
2022/11/20 06:16:52;;;;;;;32.80;18.45;;;4.80;99.90;;;;;;4951262;29;20047;-76
2022/11/20 06:19:19;;;;;;;32.85;19.33;;;4.80;99.90;;;;;;4943667;29;20144;-76
2022/11/20 06:21:46;;;;;;;33.70;20.58;;;4.80;99.90;;;;;;4933502;28;20468;-76
2022/11/20 06:24:13;;;;;;;37.10;20.98;;;4.80;99.90;;;;;;4949909;29;20126;-76
2022/11/20 06:26:41;;;;;;;33.92;19.85;;;4.80;99.90;;;;;;4951397;29;20044;-76
2022/11/20 06:29:08;;;;;;;38.22;21.27;;;4.80;99.90;;;;;;4947978;28;20050;-76
2022/11/20 06:31:37;;;;;;;36.78;20.98;;;4.80;99.90;;;;;;4927931;29;20051;-74
2022/11/20 06:34:04;;;;;;;45.00;26.10;;;4.80;99.90;;;;;;4942833;29;20040;-75
2022/11/20 06:36:31;;;;;;;43.15;25.52;;;4.80;99.90;;;;;;4950205;29;20050;-76
2022/11/20 06:38:58;;;;;;;45.60;26.40;;;4.80;99.90;;;;;;4951401;29;20064;-75
2022/11/20 06:41:25;;;;;;;44.83;26.23;;;4.80;99.90;;;;;;4946698;28;20508;-74
2022/11/20 06:43:53;;;;;;;37.10;22.15;;;4.80;99.90;;;;;;4943683;29;20058;-75
2022/11/20 06:46:21;;;;;;;38.58;23.10;;;4.80;99.90;;;;;;4950337;29;20130;-75
2022/11/20 06:48:48;;;;;;;36.25;21.92;;;4.80;99.90;;;;;;4951506;29;20467;-76
2022/11/20 06:51:15;;;;;;;39.05;22.50;;;4.80;99.90;;;;;;4950503;28;20049;-75
2022/11/20 06:53:42;;;;;;;34.70;20.92;;;4.80;99.90;;;;;;4949123;29;20134;-74
2022/11/20 06:56:09;;;;;;;35.25;21.20;;;4.80;99.90;;;;;;4949538;28;20484;-74
2022/11/20 06:58:37;;;;;;;34.08;20.27;;;4.80;99.90;;;;;;4950806;29;20046;-74
2022/11/20 07:01:07;;;;;;;31.75;19.15;;;4.80;99.90;;;;;;4951320;28;20090;-75
2022/11/20 07:03:34;;;;;;;34.47;20.70;;;4.80;99.90;;;;;;4948167;29;20051;-75
2022/11/20 07:06:01;;;;;;;35.60;20.08;;;4.80;99.90;;;;;;4932585;29;20408;-75
2022/11/20 07:08:29;;;;;;;34.50;19.90;;;4.80;99.90;;;;;;4943314;29;20126;-75
2022/11/20 07:10:59;;;;;;;31.52;18.40;;;4.80;99.90;;;;;;4959708;23;20452;-79
2022/11/20 07:13:26;;;;;;;31.13;17.92;;;4.70;99.90;;;;;;4934372;28;20407;-79
2022/11/20 07:15:53;;;;;;;29.85;18.15;;;4.70;99.90;;;;;;4946399;29;20058;-78
2022/11/20 07:18:22;;;;;;;36.58;18.85;;;4.70;99.90;;;;;;4950723;29;20039;-78
2022/11/20 07:20:48;;;;;;;34.20;18.35;;;4.70;99.90;;;;;;4950337;29;20050;-78
2022/11/20 07:23:15;;;;;;;31.98;18.00;;;4.70;99.90;;;;;;4934173;28;20075;-78
2022/11/20 07:25:42;;;;;;;32.33;18.20;;;4.70;99.90;;;;;;4949509;28;20058;-78
2022/11/20 07:28:10;;;;;;;31.60;17.38;;;4.70;99.90;;;;;;4950167;28;20499;-78
2022/11/20 07:30:37;;;;;;;34.40;17.55;;;4.70;99.90;;;;;;4944941;28;20074;-78
2022/11/20 07:33:04;;;;;;;30.77;17.58;;;4.70;99.90;;;;;;4940729;29;20101;-78
2022/11/20 07:35:32;;;;;;;29.38;18.10;;;4.80;99.90;;;;;;4944360;29;20042;-78
2022/11/20 07:38:00;;;;;;;29.77;17.60;;;4.80;99.90;;;;;;4942048;28;20043;-78
2022/11/20 07:40:27;;;;;;;31.50;18.05;;;4.80;99.90;;;;;;4950246;28;20491;-78
2022/11/20 07:42:54;;;;;;;32.10;18.67;;;4.80;99.90;;;;;;4952496;29;20532;-78
2022/11/20 07:45:23;;;;;;;31.35;18.38;;;4.80;99.90;;;;;;4954480;28;20043;-77
2022/11/20 07:47:50;;;;;;;29.67;17.85;;;4.90;99.90;;;;;;4952425;28;20534;-78
2022/11/20 07:50:17;;;;;;;31.85;18.80;;;4.90;99.90;;;;;;4954060;28;20090;-78
2022/11/20 07:52:45;;;;;;;31.50;19.00;;;4.90;99.90;;;;;;4952035;29;20054;-78
2022/11/20 07:55:13;;;;;;;31.75;18.15;;;4.90;99.90;;;;;;4952553;29;20125;-78
2022/11/20 07:57:40;;;;;;;30.63;18.00;;;4.90;99.90;;;;;;4953395;29;20046;-79
2022/11/20 08:00:09;;;;;;;35.83;20.63;;;4.90;99.90;;;;;;4947919;28;20047;-79
2022/11/20 08:02:39;;;;;;;36.10;20.83;;;4.90;99.90;;;;;;4953402;28;20101;-79
2022/11/20 08:05:07;;;;;;;38.58;21.23;;;4.90;99.90;;;;;;4949998;28;20479;-80
2022/11/20 08:07:37;;;;;;;43.88;23.00;;;4.90;99.90;;;;;;4953456;28;20039;-79
2022/11/20 08:10:07;;;;;;;35.58;21.50;;;4.90;99.90;;;;;;4945860;29;20051;-80
2022/11/20 08:15:18;;;;;;;36.13;21.92;;;4.90;99.90;;;;;;4953320;29;20050;-80
2022/11/20 08:17:45;;;;;;;37.15;21.90;;;5.00;99.90;;;;;;4952291;29;20051;-80
2022/11/20 08:20:12;;;;;;;39.72;22.55;;;5.00;99.90;;;;;;4953023;28;20047;-80
2022/11/20 08:22:41;;;;;;;39.42;23.23;;;5.00;99.90;;;;;;4943967;29;20118;-79
2022/11/20 08:25:10;;;;;;;38.00;23.10;;;5.00;99.90;;;;;;4946307;28;20053;-83
2022/11/20 08:27:37;;;;;;;40.70;23.85;;;5.00;99.90;;;;;;4947249;29;20039;-83
2022/11/20 08:30:04;;;;;;;47.88;25.13;;;5.00;99.90;;;;;;4951986;28;20046;-83
2022/11/20 08:32:31;;;;;;;40.53;23.23;;;5.00;99.90;;;;;;4950596;28;20081;-81
2022/11/20 08:34:58;;;;;;;41.17;23.85;;;5.00;99.90;;;;;;4947936;28;20039;-79
2022/11/20 08:37:25;;;;;;;164.20;29.48;;;5.10;99.90;;;;;;4949311;28;20118;-79
2022/11/20 08:39:53;;;;;;;44.47;23.63;;;5.10;99.90;;;;;;4949493;29;20051;-78
2022/11/20 08:42:21;;;;;;;39.10;22.58;;;5.10;99.90;;;;;;4952493;29;20043;-78
2022/11/20 08:44:48;;;;;;;37.20;22.10;;;5.10;99.90;;;;;;4952198;29;20039;-77
2022/11/20 08:47:15;;;;;;;34.40;21.65;;;5.20;99.90;;;;;;4948817;29;20468;-78
2022/11/20 08:49:42;;;;;;;36.60;21.13;;;5.20;99.90;;;;;;4951106;29;20134;-78
2022/11/20 08:52:09;;;;;;;37.60;22.23;;;5.20;99.90;;;;;;4945312;29;20141;-77
2022/11/20 08:54:36;;;;;;;35.65;21.80;;;5.30;99.90;;;;;;4950013;28;20051;-78
2022/11/20 08:57:03;;;;;;;35.45;21.55;;;5.30;99.90;;;;;;4952423;29;20685;-78
2022/11/20 08:59:31;;;;;;;36.45;22.35;;;5.30;99.90;;;;;;4952323;29;20047;-77
2022/11/20 09:01:59;;;;;;;35.20;21.05;;;5.40;99.90;;;;;;4950854;29;20044;-77
2022/11/20 09:04:26;;;;;;;35.67;22.30;;;5.30;99.90;;;;;;4946071;29;20047;-78
2022/11/20 09:06:53;;;;;;;46.15;24.08;;;5.40;99.90;;;;;;4950997;29;20043;-77
2022/11/20 09:09:20;;;;;;;37.42;22.35;;;5.50;99.90;;;;;;4946840;29;20051;-77
2022/11/20 09:11:46;;;;;;;35.10;21.92;;;5.50;99.90;;;;;;4951360;29;20410;-77
2022/11/20 09:14:13;;;;;;;78.15;37.33;;;5.50;99.90;;;;;;4948392;29;20527;-77
2022/11/20 09:16:42;;;;;;;69.93;35.50;;;5.60;99.90;;;;;;4945707;29;20058;-78
2022/11/20 09:19:09;;;;;;;65.00;32.80;;;5.60;99.90;;;;;;4948510;29;20044;-76
2022/11/20 09:21:36;;;;;;;62.42;33.45;;;5.60;99.90;;;;;;4951180;29;20083;-75
2022/11/20 09:24:03;;;;;;;59.70;31.85;;;5.70;99.90;;;;;;4951685;29;20500;-76
2022/11/20 09:26:30;;;;;;;57.60;31.58;;;5.70;99.90;;;;;;4941321;28;20762;-78
2022/11/20 09:28:57;;;;;;;62.80;33.35;;;5.70;99.90;;;;;;4943912;28;20126;-76
2022/11/20 09:31:25;;;;;;;74.10;37.72;;;5.80;99.90;;;;;;4951988;28;20071;-76
2022/11/20 09:33:54;;;;;;;72.22;37.58;;;5.80;99.90;;;;;;4952624;28;20125;-77
2022/11/20 09:36:20;;;;;;;60.97;33.38;;;5.80;99.90;;;;;;4946907;28;20131;-76
2022/11/20 09:38:48;;;;;;;54.97;30.83;;;5.90;99.90;;;;;;4947888;29;20075;-77
2022/11/20 09:41:34;;;;;;;39.20;22.73;;;5.90;99.90;;;;;;4951956;28;20051;-77
2022/11/20 09:44:08;;;;;;;33.40;17.83;;;6.00;99.90;;;;;;4938552;28;20119;-76
2022/11/20 09:46:40;;;;;;;32.47;18.20;;;6.00;99.90;;;;;;4951533;28;20184;-77
2022/11/20 09:49:21;;;;;;;31.88;17.05;;;6.30;99.90;;;;;;4944580;29;20039;-75
2022/11/20 09:51:58;;;;;;;29.92;17.38;;;6.10;99.90;;;;;;4951035;28;20464;-74
2022/11/20 09:54:31;;;;;;;25.65;15.55;;;6.20;99.90;;;;;;4952064;29;20071;-75
2022/11/20 09:57:01;;;;;;;28.27;15.88;;;6.30;99.90;;;;;;4944453;29;20623;-75
2022/11/20 09:59:34;;;;;;;30.05;16.15;;;6.30;99.90;;;;;;4948562;29;20130;-75
2022/11/20 10:02:03;;;;;;;26.35;16.30;;;6.30;99.90;;;;;;4948106;29;20046;-74
2022/11/20 10:04:32;;;;;;;27.63;14.90;;;6.40;99.90;;;;;;4951267;28;20047;-75
2022/11/20 10:07:04;;;;;;;30.15;15.20;;;6.40;99.90;;;;;;4948299;28;20070;-75
2022/11/20 10:09:33;;;;;;;24.73;15.35;;;6.50;99.90;;;;;;4947385;28;20552;-76
2022/11/20 10:12:10;;;;;;;30.48;17.13;;;6.50;99.90;;;;;;4949621;28;20051;-75
2022/11/20 10:14:48;;;;;;;29.80;16.77;;;6.50;99.90;;;;;;4945771;28;20043;-75
2022/11/20 10:17:25;;;;;;;28.33;15.70;;;6.50;99.90;;;;;;4949689;28;20050;-75
2022/11/20 10:20:11;;;;;;;25.17;14.32;;;6.50;99.90;;;;;;4952271;28;20130;-75
2022/11/20 10:22:47;;;;;;;26.08;14.85;;;6.50;99.90;;;;;;4954161;28;20042;-75
2022/11/20 10:25:16;;;;;;;26.02;14.27;;;6.50;99.90;;;;;;4946046;28;20127;-75
2022/11/20 10:28:13;;;;;;;25.60;15.38;;;6.50;99.90;;;;;;4942566;29;20047;-75
2022/11/20 10:30:43;;;;;;;27.88;15.30;;;6.50;99.90;;;;;;4949494;28;20130;-75
2022/11/20 10:33:15;;;;;;;27.08;14.70;;;6.50;99.90;;;;;;4949593;28;20094;-75
2022/11/20 10:35:45;;;;;;;23.42;13.55;;;6.60;99.90;;;;;;4951878;28;20042;-75
2022/11/20 10:38:18;;;;;;;23.00;12.77;;;6.50;99.90;;;;;;4957911;28;20106;-75
2022/11/20 10:40:47;;;;;;;23.35;13.32;;;6.50;99.90;;;;;;4953480;28;20130;-75
2022/11/20 10:43:16;;;;;;;24.38;14.23;;;6.60;99.90;;;;;;4951426;28;20053;-75
2022/11/20 10:45:52;;;;;;;24.25;13.52;;;6.60;99.90;;;;;;4947566;28;20110;-75
2022/11/20 10:48:22;;;;;;;24.38;14.00;;;6.60;99.90;;;;;;4954957;28;20097;-75
2022/11/20 10:51:09;;;;;;;23.98;14.57;;;6.60;99.90;;;;;;4946019;28;20538;-75
2022/11/20 10:53:45;;;;;;;24.83;14.25;;;6.70;99.90;;;;;;4965260;28;20059;-75
2022/11/20 10:56:18;;;;;;;23.77;13.63;;;6.70;99.90;;;;;;4954427;28;20102;-75
2022/11/20 10:58:53;;;;;;;25.88;14.52;;;6.70;99.90;;;;;;4950905;28;20042;-75
2022/11/20 11:01:22;;;;;;;25.67;13.98;;;6.80;99.90;;;;;;4946241;28;20644;-75
2022/11/20 11:03:50;;;;;;;22.98;13.50;;;6.80;99.90;;;;;;4960995;28;20050;-75
2022/11/20 11:06:25;;;;;;;23.02;13.45;;;6.80;99.90;;;;;;4954646;28;20043;-75
2022/11/20 11:08:54;;;;;;;25.58;13.00;;;6.90;99.90;;;;;;4950237;28;20122;-75
2022/11/20 11:11:24;;;;;;;23.80;13.05;;;6.90;99.90;;;;;;4967184;28;20061;-75
2022/11/20 11:13:51;;;;;;;22.83;12.75;;;7.00;99.90;;;;;;4964805;28;20051;-75
2022/11/20 11:16:22;;;;;;;24.42;13.57;;;6.90;99.90;;;;;;4950860;28;20047;-75
2022/11/20 11:18:49;;;;;;;;;;;7.00;99.90;;;;;;4952667;28;20035;-75
2022/11/20 11:21:23;;;;;;;23.27;13.45;;;7.00;99.90;;;;;;4958316;28;19929;-75
2022/11/20 11:23:59;;;;;;;23.85;13.20;;;7.00;99.90;;;;;;4945998;28;20142;-75
2022/11/20 11:26:27;;;;;;;22.55;12.77;;;7.00;99.90;;;;;;4954093;28;20134;-75
2022/11/20 11:28:57;;;;;;;23.23;13.60;;;7.10;99.90;;;;;;4954157;28;20169;-75
2022/11/20 11:31:25;;;;;;;26.15;14.88;;;7.10;99.90;;;;;;4966017;28;20050;-75
2022/11/20 11:33:52;;;;;;;24.23;14.02;;;7.10;99.90;;;;;;4953310;28;20122;-75
2022/11/20 11:36:25;;;;;;;25.65;14.30;;;7.10;99.90;;;;;;4948167;28;20039;-78
2022/11/20 11:38:53;;;;;;;25.33;13.80;;;7.20;99.90;;;;;;4954717;28;20053;-75
2022/11/20 11:41:24;;;;;;;24.17;13.35;;;7.20;99.90;;;;;;4946727;28;20043;-76
2022/11/20 11:46:38;;;;;;;26.75;13.40;;;7.30;99.90;;;;;;4949909;29;20298;-74
2022/11/20 11:49:17;;;;;;;27.27;15.30;;;7.30;99.90;;;;;;4948760;28;20130;-73
2022/11/20 11:51:59;;;;;;;25.52;14.00;;;7.20;99.90;;;;;;4947588;29;20047;-74
2022/11/20 11:54:30;;;;;;;26.58;14.68;;;7.30;99.90;;;;;;4937559;28;20051;-74
2022/11/20 11:57:01;;;;;;;23.83;13.80;;;7.30;99.90;;;;;;4935178;28;20178;-76
2022/11/20 11:59:33;;;;;;;25.17;14.30;;;7.40;99.90;;;;;;4942307;29;20043;-74
2022/11/20 12:02:04;;;;;;;27.23;14.50;;;7.40;99.90;;;;;;4941423;29;20055;-74
2022/11/20 12:04:43;;;;;;;26.33;14.27;;;7.40;99.90;;;;;;4938588;29;20102;-74
2022/11/20 12:07:14;;;;;;;27.00;14.38;;;7.40;99.90;;;;;;4948200;29;20061;-74
2022/11/20 12:09:45;;;;;;;26.60;14.30;;;7.40;99.90;;;;;;4939414;29;20130;-74
2022/11/20 12:12:16;;;;;;;28.20;14.88;;;7.40;99.90;;;;;;4941932;28;20629;-74
2022/11/20 12:14:46;;;;;;;29.75;15.13;;;7.40;99.90;;;;;;4949881;28;20126;-77
2022/11/20 12:17:14;;;;;;;26.83;15.13;;;7.50;99.90;;;;;;4949340;29;20052;-75
2022/11/20 12:19:42;;;;;;;28.27;14.73;;;7.40;99.90;;;;;;4943632;28;20118;-75
2022/11/20 12:22:20;;;;;;;27.88;15.70;;;7.50;99.90;;;;;;4949955;29;20073;-75
2022/11/20 12:24:55;;;;;;;29.08;14.95;;;7.50;99.90;;;;;;4945605;29;20559;-76
2022/11/20 12:27:42;;;;;;;27.35;14.88;;;7.50;99.90;;;;;;4948883;28;20071;-74
2022/11/20 12:30:11;;;;;;;26.90;14.50;;;7.50;99.90;;;;;;4941762;28;20059;-74
2022/11/20 12:32:54;;;;;;;26.88;15.18;;;7.50;99.90;;;;;;4943851;28;20126;-74
2022/11/20 12:35:33;;;;;;;26.95;14.75;;;7.50;99.90;;;;;;4946027;28;20533;-74
2022/11/20 12:38:15;;;;;;;27.35;15.10;;;7.50;99.90;;;;;;4947603;28;20057;-74
2022/11/20 12:40:47;;;;;;;26.98;14.55;;;7.50;99.90;;;;;;4950132;28;20748;-73
2022/11/20 12:46:14;;;;;;;29.00;15.43;;;7.50;99.90;;;;;;4957247;28;19944;-74
2022/11/20 12:48:53;;;;;;;25.20;13.98;;;7.50;99.90;;;;;;4952778;28;20123;-74
2022/11/20 12:51:33;;;;;;;26.58;15.55;;;7.50;99.90;;;;;;4951338;28;20549;-74
2022/11/20 12:54:23;;;;;;;29.38;15.73;;;7.50;99.90;;;;;;4951124;28;20095;-73
2022/11/20 12:56:53;;;;;;;26.63;14.88;;;7.50;99.90;;;;;;4952121;28;20083;-74
2022/11/20 12:59:39;;;;;;;29.70;15.18;;;7.50;99.90;;;;;;4955065;28;20109;-73
2022/11/20 13:02:19;;;;;;;26.20;15.27;;;7.50;99.90;;;;;;4950599;28;20137;-74